Time;durP1;ratioP1;P1;durP2;ratioP2;P2;SDS_P1;SDS_P2;PMS_P1;PMS_P2;Temp;Humidity;BMP_temperature;BMP_pressure;BME280_temperature;BME280_humidity;BME280_pressure;Samples;Min_cycle;Max_cycle;Signal;HPM_P1;HPM_P2
2021/07/08 00:03:23;;;;;;;18.17;10.75;;;;;;;;;;5095919;28;20081;-59
2021/07/08 00:05:49;;;;;;;19.30;11.13;;;;;;;;;;5094467;28;20078;-57
2021/07/08 00:08:15;;;;;;;19.17;11.48;;;;;;;;;;5076181;28;20146;-58
2021/07/08 00:10:46;;;;;;;17.40;11.23;;;;;;;;;;5095015;28;20050;-59
2021/07/08 00:13:12;;;;;;;18.05;11.40;;;;;;;;;;5095203;28;20064;-58
2021/07/08 00:15:39;;;;;;;18.92;11.52;;;;;;;;;;5075894;28;20028;-58
2021/07/08 00:18:09;;;;;;;21.20;12.00;;;;;;;;;;5094750;28;20047;-58
2021/07/08 00:20:35;;;;;;;18.25;11.77;;;;;;;;;;5094416;28;20024;-58
2021/07/08 00:23:01;;;;;;;17.50;11.45;;;;;;;;;;5076013;28;20020;-60
2021/07/08 00:25:28;;;;;;;19.10;12.18;;;;;;;;;;5093996;28;20102;-59
2021/07/08 00:27:55;;;;;;;19.33;12.23;;;;;;;;;;5076285;28;20472;-58
2021/07/08 00:30:40;;;;;;;19.55;11.85;;;;;;;;;;5075898;28;20114;-55
2021/07/08 00:57:35;;;;;;;18.48;12.68;;;;;;;;;;5094260;28;20074;-58
2021/07/08 01:00:01;;;;;;;19.35;13.32;;;;;;;;;;5094088;28;20028;-56
2021/07/08 01:02:28;;;;;;;21.70;14.57;;;;;;;;;;5094067;28;20044;-61
2021/07/08 01:04:54;;;;;;;22.77;13.00;;;;;;;;;;5075210;28;20476;-59
2021/07/08 01:07:21;;;;;;;19.35;12.32;;;;;;;;;;5093617;28;20039;-59
2021/07/08 01:09:47;;;;;;;20.30;12.25;;;;;;;;;;5093946;28;20028;-57
2021/07/08 01:12:26;;;;;;;19.42;12.63;;;;;;;;;;5075623;28;20403;-58
2021/07/08 01:14:52;;;;;;;22.17;12.63;;;;;;;;;;5092921;28;20016;-60
2021/07/08 02:18:30;;;;;;;18.98;14.00;;;;;;;;;;5093122;28;20702;-57
2021/07/08 03:04:05;;;;;;;22.17;15.27;;;;;;;;;;5091702;28;20068;-59
2021/07/08 03:06:32;;;;;;;22.50;14.80;;;;;;;;;;5091321;28;20035;-58
2021/07/08 03:08:58;;;;;;;23.63;15.00;;;;;;;;;;5073685;28;20115;-59
2021/07/08 03:11:24;;;;;;;26.02;16.35;;;;;;;;;;5091809;28;20059;-59
2021/07/08 04:15:03;;;;;;;20.60;14.13;;;;;;;;;;5093592;28;20108;-58
2021/07/08 04:17:29;;;;;;;21.67;14.60;;;;;;;;;;5075936;28;20399;-58
2021/07/08 04:19:56;;;;;;;21.13;14.38;;;;;;;;;;5076237;28;20459;-59
2021/07/08 04:22:23;;;;;;;23.35;14.52;;;;;;;;;;5075872;28;20024;-59
2021/07/08 04:24:49;;;;;;;21.63;13.77;;;;;;;;;;5092955;28;20511;-58
2021/07/08 04:27:15;;;;;;;21.15;13.75;;;;;;;;;;5093878;28;20028;-57
2021/07/08 04:29:41;;;;;;;23.20;14.50;;;;;;;;;;5075318;28;20478;-56
2021/07/08 04:32:07;;;;;;;19.98;13.85;;;;;;;;;;5093147;28;20031;-59
2021/07/08 04:34:33;;;;;;;20.73;14.40;;;;;;;;;;5074670;28;20071;-59
2021/07/08 04:37:01;;;;;;;18.52;13.05;;;;;;;;;;5092965;28;20062;-58
2021/07/08 04:39:27;;;;;;;21.08;13.15;;;;;;;;;;5093514;28;20373;-58
2021/07/08 04:41:53;;;;;;;21.92;13.98;;;;;;;;;;5075167;28;20024;-58
2021/07/08 04:44:19;;;;;;;22.92;14.65;;;;;;;;;;5092682;28;20028;-59
2021/07/08 04:46:45;;;;;;;25.80;15.25;;;;;;;;;;5092620;28;20130;-56
2021/07/08 04:49:12;;;;;;;25.13;15.10;;;;;;;;;;5092853;28;20100;-59
2021/07/08 04:51:38;;;;;;;24.17;13.68;;;;;;;;;;5092696;28;20027;-60
2021/07/08 04:54:05;;;;;;;21.75;14.73;;;;;;;;;;5074593;28;20399;-57
2021/07/08 04:56:31;;;;;;;25.88;18.38;;;;;;;;;;5074269;28;20032;-59
2021/07/08 04:58:57;;;;;;;23.48;15.73;;;;;;;;;;5075091;28;20417;-59
2021/07/08 05:01:23;;;;;;;22.63;14.50;;;;;;;;;;5093569;28;20028;-57
2021/07/08 05:03:49;;;;;;;23.60;15.90;;;;;;;;;;5093170;28;20020;-59
2021/07/08 05:06:15;;;;;;;22.20;14.13;;;;;;;;;;5074274;28;20024;-59
2021/07/08 05:08:41;;;;;;;22.60;13.70;;;;;;;;;;5093125;28;20111;-61
2021/07/08 05:11:08;;;;;;;24.10;14.95;;;;;;;;;;5093257;28;20056;-60
2021/07/08 05:13:34;;;;;;;23.13;14.82;;;;;;;;;;5075060;28;20026;-59
2021/07/08 05:16:00;;;;;;;20.98;13.45;;;;;;;;;;5092409;28;20427;-59
2021/07/08 05:18:26;;;;;;;24.60;13.32;;;;;;;;;;5074567;28;20070;-57
2021/07/08 05:20:52;;;;;;;19.90;12.55;;;;;;;;;;5092874;28;20035;-59
2021/07/08 05:23:21;;;;;;;21.85;12.75;;;;;;;;;;5092937;28;20020;-57
2021/07/08 05:25:47;;;;;;;20.95;12.30;;;;;;;;;;5091861;28;20111;-59
2021/07/08 05:28:13;;;;;;;22.08;12.38;;;;;;;;;;5074390;28;20064;-59
2021/07/08 05:30:40;;;;;;;21.05;12.15;;;;;;;;;;5074448;28;20081;-58
2021/07/08 05:33:06;;;;;;;21.10;12.35;;;;;;;;;;5092414;28;20063;-60
2021/07/08 05:35:32;;;;;;;21.58;12.93;;;;;;;;;;5073614;28;20422;-60
2021/07/08 05:37:58;;;;;;;20.90;12.07;;;;;;;;;;5092043;28;20046;-61
2021/07/08 05:40:24;;;;;;;20.08;12.48;;;;;;;;;;5074188;28;20035;-60
2021/07/08 05:42:50;;;;;;;22.48;11.68;;;;;;;;;;5092442;28;20028;-58
2021/07/08 05:45:16;;;;;;;22.05;12.43;;;;;;;;;;5091822;28;20024;-57
2021/07/08 05:47:42;;;;;;;20.42;11.63;;;;;;;;;;5095378;22;20065;-59
2021/07/08 05:50:09;;;;;;;21.42;12.20;;;;;;;;;;5052480;28;20032;-59
2021/07/08 05:52:35;;;;;;;23.23;12.90;;;;;;;;;;5051234;28;20017;-58
2021/07/08 05:55:01;;;;;;;22.13;12.40;;;;;;;;;;5051634;28;20029;-59
2021/07/08 05:57:27;;;;;;;19.88;11.63;;;;;;;;;;5050805;28;20025;-59
2021/07/08 05:59:54;;;;;;;21.23;12.20;;;;;;;;;;5052129;28;20138;-59
2021/07/08 06:02:20;;;;;;;19.13;11.68;;;;;;;;;;5052235;28;20024;-59
2021/07/08 06:04:46;;;;;;;19.85;11.25;;;;;;;;;;5051600;28;20025;-59
2021/07/08 06:07:12;;;;;;;19.70;11.32;;;;;;;;;;5051377;28;20021;-59
2021/07/08 06:09:39;;;;;;;21.08;11.60;;;;;;;;;;5051897;28;20028;-60
2021/07/08 06:12:05;;;;;;;20.15;11.35;;;;;;;;;;5050744;28;20060;-59
2021/07/08 06:14:31;;;;;;;17.80;10.82;;;;;;;;;;5051217;28;20643;-59
2021/07/08 06:16:57;;;;;;;19.52;12.07;;;;;;;;;;5050145;28;20025;-59
2021/07/08 06:19:23;;;;;;;19.08;11.20;;;;;;;;;;5043775;28;20022;-58
2021/07/08 06:21:49;;;;;;;22.13;11.15;;;;;;;;;;5046498;28;20064;-59
2021/07/08 06:24:16;;;;;;;20.55;11.02;;;;;;;;;;5032479;28;20025;-59
2021/07/08 06:29:55;;;;;;;20.35;11.32;;;;;;;;;;5051805;28;20046;-59
2021/07/08 06:32:21;;;;;;;19.63;10.73;;;;;;;;;;5050376;28;20507;-59
2021/07/08 06:34:47;;;;;;;21.30;12.23;;;;;;;;;;5050666;28;20056;-56
2021/07/08 06:37:14;;;;;;;20.30;11.88;;;;;;;;;;5030374;28;20476;-58
2021/07/08 06:39:40;;;;;;;20.55;11.40;;;;;;;;;;5031673;28;20021;-58
2021/07/08 06:42:05;;;;;;;19.35;11.68;;;;;;;;;;5030314;28;20036;-59
2021/07/08 06:44:32;;;;;;;20.25;11.52;;;;;;;;;;5030663;28;20021;-59
2021/07/08 06:46:58;;;;;;;18.67;11.70;;;;;;;;;;5031323;28;20029;-60
2021/07/08 06:49:24;;;;;;;20.35;12.00;;;;;;;;;;5030113;28;20367;-59
2021/07/08 06:51:50;;;;;;;17.95;10.48;;;;;;;;;;5031433;28;20035;-59
2021/07/08 06:54:16;;;;;;;19.67;10.60;;;;;;;;;;5050549;28;20049;-59
2021/07/08 06:56:42;;;;;;;21.02;11.05;;;;;;;;;;5050015;28;20025;-58
2021/07/08 06:59:08;;;;;;;19.25;10.75;;;;;;;;;;5049845;28;20025;-59
2021/07/08 07:01:35;;;;;;;19.60;11.13;;;;;;;;;;5051229;28;20032;-62
2021/07/08 07:04:01;;;;;;;17.90;10.48;;;;;;;;;;5051217;28;20096;-61
2021/07/08 07:06:27;;;;;;;16.38;10.07;;;;;;;;;;5049216;28;20458;-62
2021/07/08 07:08:54;;;;;;;18.80;10.60;;;;;;;;;;5050925;28;20114;-61
2021/07/08 07:11:20;;;;;;;19.38;12.02;;;;;;;;;;5051279;28;20025;-63
2021/07/08 07:13:46;;;;;;;18.50;11.35;;;;;;;;;;5051242;28;20108;-61
2021/07/08 07:16:12;;;;;;;24.35;16.63;;;;;;;;;;5050809;28;20493;-62
2021/07/08 07:18:39;;;;;;;17.40;11.48;;;;;;;;;;5054668;28;20365;-62
2021/07/08 07:21:09;;;;;;;20.42;11.65;;;;;;;;;;5055114;28;20028;-61
2021/07/08 07:23:35;;;;;;;20.17;12.68;;;;;;;;;;5055043;28;20100;-61
2021/07/08 07:26:01;;;;;;;17.60;11.98;;;;;;;;;;5054260;28;20079;-62
2021/07/08 07:28:27;;;;;;;17.17;11.77;;;;;;;;;;5055200;28;20041;-61
2021/07/08 07:30:53;;;;;;;20.42;12.98;;;;;;;;;;5056431;28;20032;-62
2021/07/08 07:33:19;;;;;;;22.42;13.45;;;;;;;;;;5054603;28;20544;-61
2021/07/08 07:35:45;;;;;;;22.50;13.05;;;;;;;;;;5053153;28;20025;-61
2021/07/08 07:38:11;;;;;;;25.75;14.45;;;;;;;;;;5054862;28;20500;-61
2021/07/08 07:40:39;;;;;;;20.13;13.20;;;;;;;;;;5053358;28;20021;-61
2021/07/08 07:43:04;;;;;;;19.35;12.77;;;;;;;;;;5054665;28;20053;-61
2021/07/08 07:45:30;;;;;;;20.90;12.60;;;;;;;;;;5052973;28;20032;-61
2021/07/08 07:47:56;;;;;;;20.00;11.95;;;;;;;;;;5054704;28;20052;-61
2021/07/08 07:50:24;;;;;;;18.85;11.88;;;;;;;;;;5054718;28;20051;-61
2021/07/08 07:52:52;;;;;;;18.25;11.70;;;;;;;;;;5053494;28;20029;-61
2021/07/08 07:55:18;;;;;;;20.13;11.45;;;;;;;;;;5053901;28;20052;-61
2021/07/08 07:57:44;;;;;;;17.80;11.05;;;;;;;;;;5054231;28;20021;-61
2021/07/08 08:00:11;;;;;;;22.83;11.68;;;;;;;;;;5052718;28;20064;-62
2021/07/08 08:02:38;;;;;;;17.42;10.68;;;;;;;;;;5054265;28;20074;-61
2021/07/08 08:10:16;;;;;;;20.25;11.02;;;;;;;;;;5054579;28;20068;-60
2021/07/08 08:12:42;;;;;;;18.65;11.82;;;;;;;;;;5054225;28;20017;-61
2021/07/08 08:15:09;;;;;;;18.95;10.77;;;;;;;;;;5053236;28;20029;-62
2021/07/08 08:17:36;;;;;;;19.08;11.48;;;;;;;;;;5054031;28;20048;-61
2021/07/08 08:20:03;;;;;;;21.67;14.30;;;;;;;;;;5052631;28;20047;-61
2021/07/08 08:22:29;;;;;;;19.23;10.80;;;;;;;;;;5053868;28;20094;-61
2021/07/08 08:24:55;;;;;;;26.42;11.82;;;;;;;;;;5052148;28;20462;-61
2021/07/08 08:27:21;;;;;;;17.73;10.77;;;;;;;;;;5052902;28;20025;-60
2021/07/08 08:29:48;;;;;;;17.15;10.68;;;;;;;;;;5053406;28;20110;-61
2021/07/08 08:32:14;;;;;;;16.65;10.90;;;;;;;;;;5054024;28;20149;-61
2021/07/08 08:34:40;;;;;;;19.15;11.38;;;;;;;;;;5051940;28;20191;-60
2021/07/08 08:37:06;;;;;;;17.48;10.93;;;;;;;;;;5054159;28;20033;-60
2021/07/08 08:39:32;;;;;;;18.08;11.27;;;;;;;;;;5054220;28;20017;-60
2021/07/08 08:41:58;;;;;;;18.75;11.27;;;;;;;;;;5053852;28;20021;-61
2021/07/08 08:44:24;;;;;;;18.42;10.88;;;;;;;;;;5051863;28;20025;-61
2021/07/08 08:46:51;;;;;;;16.58;11.20;;;;;;;;;;5051793;28;20051;-60
2021/07/08 08:49:17;;;;;;;20.08;11.43;;;;;;;;;;5054088;28;20545;-61
2021/07/08 08:51:44;;;;;;;15.98;10.82;;;;;;;;;;5052945;28;20048;-62
2021/07/08 08:54:10;;;;;;;16.10;11.20;;;;;;;;;;5053375;28;20431;-60
2021/07/08 08:56:36;;;;;;;17.13;12.82;;;;;;;;;;5052763;28;20029;-62
2021/07/08 08:59:02;;;;;;;17.90;12.35;;;;;;;;;;5054529;28;20031;-62
2021/07/08 09:01:29;;;;;;;20.42;12.60;;;;;;;;;;5052688;28;20023;-61
2021/07/08 09:03:55;;;;;;;17.90;12.82;;;;;;;;;;5054234;28;20025;-61
2021/07/08 09:06:21;;;;;;;18.33;12.32;;;;;;;;;;5051722;28;20037;-63
2021/07/08 09:08:53;;;;;;;18.88;12.10;;;;;;;;;;5052602;28;20025;-62
2021/07/08 09:11:20;;;;;;;18.00;12.65;;;;;;;;;;5053317;28;20021;-62
2021/07/08 09:13:47;;;;;;;17.17;12.38;;;;;;;;;;5052504;28;20136;-66
2021/07/08 09:16:24;;;;;;;16.97;12.13;;;;;;;;;;5051528;28;20048;-62
2021/07/08 09:19:10;;;;;;;21.98;12.82;;;;;;;;;;5053242;28;20070;-62
2021/07/08 09:21:38;;;;;;;18.08;12.52;;;;;;;;;;5052882;28;20021;-62
2021/07/08 09:24:18;;;;;;;18.15;12.27;;;;;;;;;;5053096;28;20047;-62
2021/07/08 09:26:44;;;;;;;20.40;13.30;;;;;;;;;;5052750;28;20154;-62
2021/07/08 09:29:20;;;;;;;21.73;13.40;;;;;;;;;;5051712;28;20048;-62
2021/07/08 09:31:53;;;;;;;19.63;13.05;;;;;;;;;;5051766;28;20104;-62
2021/07/08 09:34:23;;;;;;;18.92;12.60;;;;;;;;;;5050904;28;20052;-62
2021/07/08 09:37:00;;;;;;;27.25;13.10;;;;;;;;;;5052916;28;20021;-60
2021/07/08 09:39:26;;;;;;;18.70;13.00;;;;;;;;;;5051916;28;20025;-61
2021/07/08 09:41:53;;;;;;;18.08;12.30;;;;;;;;;;5051845;28;20025;-60
2021/07/08 09:44:20;;;;;;;16.52;12.48;;;;;;;;;;5052272;28;20021;-61
2021/07/08 09:46:46;;;;;;;18.05;12.90;;;;;;;;;;5049926;28;20448;-60
2021/07/08 09:49:12;;;;;;;15.80;11.90;;;;;;;;;;5051192;28;20068;-61
2021/07/08 09:51:41;;;;;;;16.83;12.40;;;;;;;;;;5052835;28;20044;-60
2021/07/08 09:56:49;;;;;;;16.30;12.18;;;;;;;;;;5052422;28;20029;-59
2021/07/08 09:59:17;;;;;;;18.05;13.43;;;;;;;;;;5052214;28;20055;-61
2021/07/08 10:01:43;;;;;;;17.33;12.98;;;;;;;;;;5051018;28;20017;-62
2021/07/08 10:04:10;;;;;;;18.58;13.50;;;;;;;;;;5051864;28;20477;-60
2021/07/08 10:06:37;;;;;;;17.85;12.82;;;;;;;;;;5050962;28;20396;-61
2021/07/08 10:09:04;;;;;;;19.67;12.98;;;;;;;;;;5052006;28;20021;-61
2021/07/08 10:11:30;;;;;;;16.85;13.07;;;;;;;;;;5051981;28;20131;-60
2021/07/08 10:13:59;;;;;;;18.08;13.63;;;;;;;;;;5051824;28;20033;-61
2021/07/08 10:16:26;;;;;;;17.52;13.82;;;;;;;;;;5050343;28;20523;-61
2021/07/08 10:18:52;;;;;;;19.73;14.27;;;;;;;;;;5051976;28;20025;-61
2021/07/08 10:21:19;;;;;;;17.73;14.55;;;;;;;;;;5051694;28;20095;-61
2021/07/08 10:23:45;;;;;;;19.30;13.93;;;;;;;;;;5051974;28;20086;-61
2021/07/08 10:26:11;;;;;;;20.45;14.70;;;;;;;;;;5051237;28;20120;-61
2021/07/08 10:28:46;;;;;;;16.95;14.20;;;;;;;;;;5051797;28;20068;-60
2021/07/08 10:31:13;;;;;;;20.42;14.45;;;;;;;;;;5050854;28;20035;-62
2021/07/08 10:33:39;;;;;;;25.33;14.23;;;;;;;;;;5051688;28;20056;-61
2021/07/08 10:36:05;;;;;;;17.70;13.52;;;;;;;;;;5050967;28;20108;-61
2021/07/08 10:38:36;;;;;;;17.08;13.80;;;;;;;;;;5050331;28;20050;-60
2021/07/08 10:41:21;;;;;;;16.58;13.68;;;;;;;;;;5051778;28;20496;-61
2021/07/08 10:43:48;;;;;;;17.80;13.95;;;;;;;;;;5052127;28;20442;-61
2021/07/08 10:46:14;;;;;;;17.90;14.02;;;;;;;;;;5048183;28;20029;-60
2021/07/08 10:48:44;;;;;;;18.95;14.07;;;;;;;;;;5051457;28;20033;-61
2021/07/08 10:51:22;;;;;;;17.15;13.82;;;;;;;;;;5051606;28;20485;-61
2021/07/08 10:53:50;;;;;;;18.48;13.05;;;;;;;;;;5055714;28;20021;-61
2021/07/08 10:56:17;;;;;;;;;;;;;;;;;;5054301;28;20049;-61
2021/07/08 10:58:52;;;;;;;17.10;13.65;;;;;;;;;;5054031;28;19904;-61
2021/07/08 11:01:27;;;;;;;17.58;13.85;;;;;;;;;;5055630;28;20031;-61
2021/07/08 11:03:54;;;;;;;18.58;13.50;;;;;;;;;;5055959;28;20074;-61
2021/07/08 11:06:20;;;;;;;16.58;13.13;;;;;;;;;;5055055;28;20029;-59
2021/07/08 11:08:46;;;;;;;17.45;13.75;;;;;;;;;;5055087;28;20031;-57
2021/07/08 11:11:12;;;;;;;16.45;13.77;;;;;;;;;;5053458;28;20021;-57
2021/07/08 11:13:38;;;;;;;16.25;13.15;;;;;;;;;;5054576;28;20037;-57
2021/07/08 11:16:04;;;;;;;17.50;13.20;;;;;;;;;;5054492;28;20056;-58
2021/07/08 11:18:31;;;;;;;17.02;13.25;;;;;;;;;;5055630;28;20362;-58
2021/07/08 11:20:57;;;;;;;17.23;12.77;;;;;;;;;;5055080;28;20481;-58
2021/07/08 11:23:36;;;;;;;16.55;13.30;;;;;;;;;;5054431;28;20029;-58
2021/07/08 11:26:02;;;;;;;17.27;12.90;;;;;;;;;;5054494;28;20028;-58
2021/07/08 11:28:30;;;;;;;17.98;13.00;;;;;;;;;;5055121;28;20029;-57
2021/07/08 11:30:59;;;;;;;18.67;12.83;;;;;;;;;;5055171;28;20031;-58
2021/07/08 11:33:26;;;;;;;18.48;13.20;;;;;;;;;;5053485;28;20268;-58
2021/07/08 11:35:58;;;;;;;16.00;12.80;;;;;;;;;;5052821;28;20489;-57
2021/07/08 11:38:25;;;;;;;16.17;12.88;;;;;;;;;;5054680;28;20066;-58
2021/07/08 11:40:52;;;;;;;16.95;13.38;;;;;;;;;;5053624;28;20021;-57
2021/07/08 11:43:31;;;;;;;17.27;13.50;;;;;;;;;;5054371;28;20112;-57
2021/07/08 11:46:04;;;;;;;19.00;13.45;;;;;;;;;;5050904;28;20379;-59
2021/07/08 11:48:31;;;;;;;16.88;13.60;;;;;;;;;;5085228;22;20033;-60
2021/07/08 11:50:58;;;;;;;16.75;13.75;;;;;;;;;;5056336;28;20479;-60
2021/07/08 11:53:25;;;;;;;19.42;14.43;;;;;;;;;;5056519;28;20032;-61
2021/07/08 11:55:52;;;;;;;16.85;13.70;;;;;;;;;;5073493;28;20025;-60
2021/07/08 11:58:22;;;;;;;17.42;14.10;;;;;;;;;;5074721;28;20024;-60
2021/07/08 12:00:48;;;;;;;17.58;13.80;;;;;;;;;;5056746;28;20023;-60
2021/07/08 12:03:30;;;;;;;18.30;14.27;;;;;;;;;;5073322;28;20016;-56
2021/07/08 12:05:58;;;;;;;17.13;14.05;;;;;;;;;;5073408;28;20542;-60
2021/07/08 12:08:25;;;;;;;16.48;14.23;;;;;;;;;;5073993;28;20036;-59
2021/07/08 12:13:38;;;;;;;17.15;14.50;;;;;;;;;;5073667;28;20064;-60
2021/07/08 12:16:05;;;;;;;16.92;14.10;;;;;;;;;;5072907;28;20469;-55
2021/07/08 12:18:45;;;;;;;17.27;13.75;;;;;;;;;;5074064;28;20028;-60
2021/07/08 12:21:17;;;;;;;16.67;14.38;;;;;;;;;;5073584;28;20036;-59
2021/07/08 12:23:43;;;;;;;17.17;14.20;;;;;;;;;;5073581;28;20070;-60
2021/07/08 12:26:30;;;;;;;16.45;13.95;;;;;;;;;;5073470;28;20028;-60
2021/07/08 12:29:15;;;;;;;16.45;13.35;;;;;;;;;;5073573;28;20483;-59
2021/07/08 12:34:47;;;;;;;19.45;13.70;;;;;;;;;;5073162;28;20067;-59
2021/07/08 12:37:16;;;;;;;17.50;13.68;;;;;;;;;;5073471;28;20024;-59
2021/07/08 12:39:43;;;;;;;16.30;13.20;;;;;;;;;;5054935;28;20029;-57
2021/07/08 12:42:16;;;;;;;17.30;13.20;;;;;;;;;;5073095;28;20017;-57
2021/07/08 12:44:43;;;;;;;17.88;13.60;;;;;;;;;;5072255;28;20081;-58
2021/07/08 12:47:09;;;;;;;17.08;13.32;;;;;;;;;;5055208;28;20031;-59
2021/07/08 12:49:35;;;;;;;16.85;13.50;;;;;;;;;;5072957;28;20032;-58
2021/07/08 12:52:01;;;;;;;16.45;12.73;;;;;;;;;;5072837;28;20369;-58
2021/07/08 12:54:29;;;;;;;18.40;13.10;;;;;;;;;;5072202;28;20040;-59
2021/07/08 12:57:02;;;;;;;16.33;13.40;;;;;;;;;;5072777;28;20491;-59
2021/07/08 12:59:28;;;;;;;16.27;12.90;;;;;;;;;;5072993;28;20039;-58
2021/07/08 13:01:54;;;;;;;16.80;13.10;;;;;;;;;;5054979;28;20539;-58
2021/07/08 13:04:28;;;;;;;16.75;13.38;;;;;;;;;;5071999;28;20031;-59
2021/07/08 13:06:59;;;;;;;16.95;13.25;;;;;;;;;;5072834;28;20048;-59
2021/07/08 13:09:25;;;;;;;17.05;13.10;;;;;;;;;;5055114;28;20035;-59
2021/07/08 13:11:51;;;;;;;17.67;13.25;;;;;;;;;;5054475;28;20028;-57
2021/07/08 13:14:24;;;;;;;17.75;13.18;;;;;;;;;;5071914;28;20502;-59
2021/07/08 13:17:03;;;;;;;16.67;13.27;;;;;;;;;;5054681;28;20029;-59
2021/07/08 13:19:29;;;;;;;15.82;13.00;;;;;;;;;;5072327;28;20112;-59
2021/07/08 13:21:55;;;;;;;15.88;13.27;;;;;;;;;;5054638;28;20074;-59
2021/07/08 13:24:25;;;;;;;16.98;13.02;;;;;;;;;;5053906;28;20415;-57
2021/07/08 13:26:52;;;;;;;16.17;13.07;;;;;;;;;;5072602;28;20028;-59
2021/07/08 13:29:23;;;;;;;17.13;13.15;;;;;;;;;;5072636;28;20028;-58
2021/07/08 13:31:49;;;;;;;17.10;13.50;;;;;;;;;;5054122;28;20029;-59
2021/07/08 13:34:21;;;;;;;17.75;13.30;;;;;;;;;;5053715;28;20052;-57
2021/07/08 13:36:47;;;;;;;16.88;14.50;;;;;;;;;;5071930;28;20400;-59
2021/07/08 13:39:13;;;;;;;17.73;13.77;;;;;;;;;;5072130;28;20025;-59
2021/07/08 13:41:40;;;;;;;16.77;13.60;;;;;;;;;;5071946;28;20103;-58
2021/07/08 13:44:07;;;;;;;18.02;13.95;;;;;;;;;;5071896;28;20032;-54
2021/07/08 13:46:33;;;;;;;16.48;13.40;;;;;;;;;;5052462;28;20709;-58
2021/07/08 13:49:15;;;;;;;16.58;13.50;;;;;;;;;;5071240;28;20086;-57
2021/07/08 13:51:47;;;;;;;16.98;13.15;;;;;;;;;;5071578;28;20031;-58
2021/07/08 13:54:14;;;;;;;18.75;13.55;;;;;;;;;;5053606;28;20440;-58
2021/07/08 13:56:40;;;;;;;20.58;13.52;;;;;;;;;;5071695;28;20460;-57
2021/07/08 13:59:06;;;;;;;16.52;13.52;;;;;;;;;;5053789;28;20025;-58
2021/07/08 14:01:32;;;;;;;16.55;13.20;;;;;;;;;;5071376;28;20031;-57
2021/07/08 14:03:58;;;;;;;19.25;13.77;;;;;;;;;;5071710;28;20017;-56
2021/07/08 14:06:26;;;;;;;19.15;13.27;;;;;;;;;;5070870;28;20074;-58
2021/07/08 14:08:52;;;;;;;19.77;13.25;;;;;;;;;;5071335;28;20099;-56
2021/07/08 14:11:18;;;;;;;17.88;13.30;;;;;;;;;;5071871;28;20036;-58
2021/07/08 14:13:45;;;;;;;17.50;12.82;;;;;;;;;;5071702;28;20361;-57
2021/07/08 14:16:11;;;;;;;17.25;12.98;;;;;;;;;;5052968;28;20081;-58
2021/07/08 14:18:37;;;;;;;18.98;12.68;;;;;;;;;;5071535;28;20052;-57
2021/07/08 14:21:04;;;;;;;18.77;12.82;;;;;;;;;;5071047;28;20028;-58
2021/07/08 14:23:30;;;;;;;19.00;13.55;;;;;;;;;;5052984;28;20032;-58
2021/07/08 14:25:56;;;;;;;18.58;12.55;;;;;;;;;;5052338;28;20435;-57
2021/07/08 14:28:23;;;;;;;18.05;11.90;;;;;;;;;;5052967;28;20392;-58
2021/07/08 14:30:50;;;;;;;19.67;11.52;;;;;;;;;;5071144;28;20373;-58
2021/07/08 14:33:17;;;;;;;18.90;11.50;;;;;;;;;;5071262;28;20103;-58
2021/07/08 14:35:44;;;;;;;17.27;12.25;;;;;;;;;;5052590;28;20031;-58
2021/07/08 14:38:10;;;;;;;17.52;11.15;;;;;;;;;;5053116;28;20028;-58
2021/07/08 14:40:36;;;;;;;17.75;11.45;;;;;;;;;;5053333;28;20230;-61
2021/07/08 14:43:05;;;;;;;18.85;10.98;;;;;;;;;;5071119;28;20033;-57
2021/07/08 14:45:32;;;;;;;18.05;10.48;;;;;;;;;;5070357;28;20104;-59
2021/07/08 14:47:58;;;;;;;17.85;10.45;;;;;;;;;;5052194;28;20456;-57
2021/07/08 14:50:24;;;;;;;17.73;11.48;;;;;;;;;;5070996;28;20067;-57
2021/07/08 14:52:50;;;;;;;18.55;10.65;;;;;;;;;;5070681;28;20024;-58
2021/07/08 14:55:16;;;;;;;20.25;10.40;;;;;;;;;;5070711;28;20452;-57
2021/07/08 14:57:42;;;;;;;17.70;11.23;;;;;;;;;;5070815;28;20086;-58
2021/07/08 15:00:09;;;;;;;19.63;11.38;;;;;;;;;;5070840;28;20422;-58
2021/07/08 15:02:35;;;;;;;19.02;11.18;;;;;;;;;;5070870;28;20031;-57
2021/07/08 15:05:01;;;;;;;19.00;11.23;;;;;;;;;;5070248;28;20408;-58
2021/07/08 15:07:27;;;;;;;18.10;10.52;;;;;;;;;;5070631;28;20025;-56
2021/07/08 15:09:53;;;;;;;19.23;11.40;;;;;;;;;;5070958;28;20023;-57
2021/07/08 15:12:19;;;;;;;18.23;9.70;;;;;;;;;;5071134;28;20061;-56
2021/07/08 15:14:46;;;;;;;15.85;9.32;;;;;;;;;;5070189;28;20052;-52
2021/07/08 15:17:12;;;;;;;19.45;9.75;;;;;;;;;;5070910;28;20528;-57
2021/07/08 15:19:39;;;;;;;16.33;9.13;;;;;;;;;;5070853;28;20025;-59
2021/07/08 15:22:05;;;;;;;16.90;10.13;;;;;;;;;;5070969;28;20455;-58
2021/07/08 15:24:31;;;;;;;18.58;10.55;;;;;;;;;;5070375;28;20024;-59
2021/07/08 15:26:57;;;;;;;19.25;11.25;;;;;;;;;;5070276;28;20040;-60
2021/07/08 15:29:23;;;;;;;17.38;9.50;;;;;;;;;;5070916;28;20127;-60
2021/07/08 15:31:50;;;;;;;19.73;10.80;;;;;;;;;;5071063;28;20024;-60
2021/07/08 15:34:16;;;;;;;16.45;9.23;;;;;;;;;;5068948;28;20056;-60
2021/07/08 15:36:44;;;;;;;17.02;9.50;;;;;;;;;;5070547;28;20444;-60
2021/07/08 15:39:11;;;;;;;17.30;9.45;;;;;;;;;;5073445;28;20078;-61
2021/07/08 15:41:37;;;;;;;16.45;9.43;;;;;;;;;;5056108;28;20036;-60
2021/07/08 15:44:03;;;;;;;16.67;10.23;;;;;;;;;;5074210;28;20051;-58
2021/07/08 15:46:29;;;;;;;16.98;10.27;;;;;;;;;;5055607;28;20024;-60
2021/07/08 15:48:55;;;;;;;15.90;10.50;;;;;;;;;;5055988;28;20120;-61
2021/07/08 15:51:24;;;;;;;18.17;11.18;;;;;;;;;;5056384;28;20389;-60
2021/07/08 15:53:50;;;;;;;18.80;10.45;;;;;;;;;;5074149;28;20392;-61
2021/07/08 15:56:17;;;;;;;17.88;10.80;;;;;;;;;;5073320;28;20445;-58
2021/07/08 15:58:43;;;;;;;18.55;10.93;;;;;;;;;;5074118;28;20389;-60
2021/07/08 16:01:09;;;;;;;17.17;10.65;;;;;;;;;;5074166;28;20025;-60
2021/07/08 16:03:35;;;;;;;16.88;11.07;;;;;;;;;;5074264;28;20157;-60
2021/07/08 16:06:03;;;;;;;21.58;12.10;;;;;;;;;;5055636;28;20025;-58
2021/07/08 16:08:29;;;;;;;19.08;11.13;;;;;;;;;;5073945;28;20438;-60
2021/07/08 16:10:55;;;;;;;19.23;11.73;;;;;;;;;;5073991;28;20021;-60
2021/07/08 16:13:21;;;;;;;19.05;11.93;;;;;;;;;;5073913;28;20396;-60
2021/07/08 16:15:47;;;;;;;19.98;12.50;;;;;;;;;;5072953;28;20392;-60
2021/07/08 16:18:14;;;;;;;17.85;11.50;;;;;;;;;;5073982;28;20020;-60
2021/07/08 16:20:39;;;;;;;16.88;9.88;;;;;;;;;;5055821;28;20017;-59
2021/07/08 16:23:05;;;;;;;18.50;10.35;;;;;;;;;;5073543;28;20078;-60
2021/07/08 16:25:32;;;;;;;17.55;9.88;;;;;;;;;;5054837;28;20433;-60
2021/07/08 16:27:58;;;;;;;18.30;10.30;;;;;;;;;;5073633;28;20418;-59
2021/07/08 16:30:24;;;;;;;15.88;9.32;;;;;;;;;;5073885;28;20139;-58
2021/07/08 16:32:50;;;;;;;17.70;9.75;;;;;;;;;;5073899;28;20025;-58
2021/07/08 16:35:16;;;;;;;15.93;8.90;;;;;;;;;;5071784;28;20031;-60
2021/07/08 16:37:42;;;;;;;16.63;8.90;;;;;;;;;;5073668;28;20333;-61
2021/07/08 16:40:10;;;;;;;17.88;8.90;;;;;;;;;;5073931;28;20026;-58
2021/07/08 16:42:37;;;;;;;16.42;8.63;;;;;;;;;;5056182;28;20108;-59
2021/07/08 16:45:04;;;;;;;18.83;9.10;;;;;;;;;;5073354;28;20052;-60
2021/07/08 16:47:30;;;;;;;19.08;8.80;;;;;;;;;;5073382;28;20025;-61
2021/07/08 16:49:56;;;;;;;17.88;8.30;;;;;;;;;;5072656;28;20485;-61
2021/07/08 16:52:22;;;;;;;17.27;8.57;;;;;;;;;;5055308;28;20024;-60
2021/07/08 16:54:48;;;;;;;17.73;8.30;;;;;;;;;;5073080;28;20031;-63
2021/07/08 16:57:16;;;;;;;17.05;8.45;;;;;;;;;;5073786;28;20032;-61
2021/07/08 16:59:42;;;;;;;;;;;;;;;;;;5073631;28;20082;-61
2021/07/08 17:02:09;;;;;;;17.58;8.70;;;;;;;;;;5073015;28;20354;-62
2021/07/08 17:04:35;;;;;;;18.58;8.77;;;;;;;;;;5072517;28;20025;-61
2021/07/08 17:07:01;;;;;;;18.95;9.50;;;;;;;;;;5055392;28;20116;-58
2021/07/08 17:09:31;;;;;;;17.90;9.18;;;;;;;;;;5072949;28;20028;-61
2021/07/08 17:11:57;;;;;;;20.30;9.32;;;;;;;;;;5073000;28;20039;-60
2021/07/08 17:14:23;;;;;;;19.40;10.02;;;;;;;;;;5072438;28;20043;-60
2021/07/08 17:16:50;;;;;;;19.77;10.23;;;;;;;;;;5072701;28;20104;-61
2021/07/08 17:19:16;;;;;;;21.65;10.63;;;;;;;;;;5072972;28;20028;-60
2021/07/08 17:21:42;;;;;;;19.05;10.32;;;;;;;;;;5054699;28;20025;-61
2021/07/08 17:24:08;;;;;;;18.70;10.25;;;;;;;;;;5054586;28;20460;-62
2021/07/08 17:26:34;;;;;;;21.58;11.23;;;;;;;;;;5054813;28;20119;-60
2021/07/08 17:29:01;;;;;;;18.92;11.07;;;;;;;;;;5055207;28;20063;-61
2021/07/08 17:31:28;;;;;;;21.35;11.55;;;;;;;;;;5072375;28;20024;-62
2021/07/08 17:33:58;;;;;;;19.92;12.13;;;;;;;;;;5071802;28;20024;-60
2021/07/08 17:36:24;;;;;;;21.13;11.73;;;;;;;;;;5072145;28;20075;-59
2021/07/08 17:38:51;;;;;;;19.67;11.27;;;;;;;;;;5054761;28;20013;-59
2021/07/08 17:41:17;;;;;;;20.00;12.02;;;;;;;;;;5072488;28;20388;-61
2021/07/08 17:43:43;;;;;;;19.38;11.88;;;;;;;;;;5072623;28;20024;-60
2021/07/08 17:46:09;;;;;;;23.20;11.63;;;;;;;;;;5071812;28;20028;-61
2021/07/08 17:48:35;;;;;;;19.48;11.82;;;;;;;;;;5073695;28;20044;-62